sensor_id;sensor_type;location;lat;lon;timestamp;P1;durP1;ratioP1;P2;durP2;ratioP2
19645;SDS011;9971;52.446;13.452;2023-05-23T00:00:43;3.20;;;2.92;;
19645;SDS011;9971;52.446;13.452;2023-05-23T00:05:47;3.53;;;3.10;;
19645;SDS011;9971;52.446;13.452;2023-05-23T00:10:49;5.73;;;3.00;;
19645;SDS011;9971;52.446;13.452;2023-05-23T00:15:51;3.50;;;3.20;;
19645;SDS011;9971;52.446;13.452;2023-05-23T00:20:53;3.42;;;2.90;;
19645;SDS011;9971;52.446;13.452;2023-05-23T00:25:57;3.02;;;2.80;;
19645;SDS011;9971;52.446;13.452;2023-05-23T00:31:01;3.60;;;2.90;;
19645;SDS011;9971;52.446;13.452;2023-05-23T00:36:03;3.72;;;3.42;;
19645;SDS011;9971;52.446;13.452;2023-05-23T00:41:06;3.67;;;3.37;;
19645;SDS011;9971;52.446;13.452;2023-05-23T00:46:09;3.17;;;2.75;;
19645;SDS011;9971;52.446;13.452;2023-05-23T00:51:12;3.17;;;2.97;;
19645;SDS011;9971;52.446;13.452;2023-05-23T00:56:14;3.40;;;3.10;;
19645;SDS011;9971;52.446;13.452;2023-05-23T01:01:16;3.80;;;3.25;;
19645;SDS011;9971;52.446;13.452;2023-05-23T01:06:19;3.93;;;3.07;;
19645;SDS011;9971;52.446;13.452;2023-05-23T01:11:24;3.12;;;2.83;;
19645;SDS011;9971;52.446;13.452;2023-05-23T01:16:35;4.10;;;3.50;;
19645;SDS011;9971;52.446;13.452;2023-05-23T01:21:39;3.80;;;3.50;;
19645;SDS011;9971;52.446;13.452;2023-05-23T01:26:54;3.77;;;2.80;;
19645;SDS011;9971;52.446;13.452;2023-05-23T01:31:56;3.37;;;3.07;;
19645;SDS011;9971;52.446;13.452;2023-05-23T01:36:58;3.50;;;3.20;;
19645;SDS011;9971;52.446;13.452;2023-05-23T01:42:00;3.80;;;3.20;;
19645;SDS011;9971;52.446;13.452;2023-05-23T01:47:03;3.70;;;3.40;;
19645;SDS011;9971;52.446;13.452;2023-05-23T01:52:05;4.12;;;3.17;;
19645;SDS011;9971;52.446;13.452;2023-05-23T01:57:07;3.47;;;3.17;;
19645;SDS011;9971;52.446;13.452;2023-05-23T02:02:09;3.27;;;2.93;;
19645;SDS011;9971;52.446;13.452;2023-05-23T02:07:11;3.67;;;3.37;;
19645;SDS011;9971;52.446;13.452;2023-05-23T02:12:14;4.25;;;3.40;;
19645;SDS011;9971;52.446;13.452;2023-05-23T02:17:16;3.37;;;3.07;;
19645;SDS011;9971;52.446;13.452;2023-05-23T02:22:21;4.90;;;3.70;;
19645;SDS011;9971;52.446;13.452;2023-05-23T02:27:20;3.67;;;3.20;;
19645;SDS011;9971;52.446;13.452;2023-05-23T02:32:22;3.47;;;3.00;;
19645;SDS011;9971;52.446;13.452;2023-05-23T02:37:25;3.10;;;2.80;;
19645;SDS011;9971;52.446;13.452;2023-05-23T02:42:27;4.17;;;3.02;;
19645;SDS011;9971;52.446;13.452;2023-05-23T02:47:29;4.13;;;3.73;;
19645;SDS011;9971;52.446;13.452;2023-05-23T02:52:32;7.37;;;4.53;;
19645;SDS011;9971;52.446;13.452;2023-05-23T02:57:34;9.50;;;5.57;;
19645;SDS011;9971;52.446;13.452;2023-05-23T03:02:37;7.35;;;5.80;;
19645;SDS011;9971;52.446;13.452;2023-05-23T03:07:39;7.87;;;5.33;;
19645;SDS011;9971;52.446;13.452;2023-05-23T03:12:42;5.15;;;4.30;;
19645;SDS011;9971;52.446;13.452;2023-05-23T03:17:44;6.80;;;4.20;;
19645;SDS011;9971;52.446;13.452;2023-05-23T03:22:47;5.57;;;5.00;;
19645;SDS011;9971;52.446;13.452;2023-05-23T03:27:49;5.72;;;4.17;;
19645;SDS011;9971;52.446;13.452;2023-05-23T03:32:51;4.60;;;3.97;;
19645;SDS011;9971;52.446;13.452;2023-05-23T03:37:53;5.78;;;4.17;;
19645;SDS011;9971;52.446;13.452;2023-05-23T03:43:00;4.60;;;3.63;;
19645;SDS011;9971;52.446;13.452;2023-05-23T03:48:03;4.60;;;3.57;;
19645;SDS011;9971;52.446;13.452;2023-05-23T03:53:05;4.12;;;3.20;;
19645;SDS011;9971;52.446;13.452;2023-05-23T03:58:07;3.83;;;3.17;;
19645;SDS011;9971;52.446;13.452;2023-05-23T04:03:09;3.58;;;3.27;;
19645;SDS011;9971;52.446;13.452;2023-05-23T04:08:12;4.03;;;3.63;;
19645;SDS011;9971;52.446;13.452;2023-05-23T04:13:14;3.80;;;3.37;;
19645;SDS011;9971;52.446;13.452;2023-05-23T04:18:17;4.03;;;3.63;;
19645;SDS011;9971;52.446;13.452;2023-05-23T04:23:19;4.53;;;3.90;;
19645;SDS011;9971;52.446;13.452;2023-05-23T04:28:22;4.22;;;3.83;;
19645;SDS011;9971;52.446;13.452;2023-05-23T04:33:24;8.65;;;5.05;;
19645;SDS011;9971;52.446;13.452;2023-05-23T04:38:26;5.20;;;3.43;;
19645;SDS011;9971;52.446;13.452;2023-05-23T04:43:29;5.07;;;3.73;;
19645;SDS011;9971;52.446;13.452;2023-05-23T04:48:33;4.17;;;3.73;;
19645;SDS011;9971;52.446;13.452;2023-05-23T04:53:35;6.93;;;4.17;;
19645;SDS011;9971;52.446;13.452;2023-05-23T04:58:38;4.10;;;3.37;;
19645;SDS011;9971;52.446;13.452;2023-05-23T05:03:42;3.75;;;3.45;;
19645;SDS011;9971;52.446;13.452;2023-05-23T05:08:46;5.70;;;3.97;;
19645;SDS011;9971;52.446;13.452;2023-05-23T05:13:48;4.62;;;3.98;;
19645;SDS011;9971;52.446;13.452;2023-05-23T05:18:53;4.90;;;4.40;;
19645;SDS011;9971;52.446;13.452;2023-05-23T05:23:57;4.40;;;4.00;;
19645;SDS011;9971;52.446;13.452;2023-05-23T05:29:00;5.22;;;4.00;;
19645;SDS011;9971;52.446;13.452;2023-05-23T05:34:03;7.73;;;4.27;;
19645;SDS011;9971;52.446;13.452;2023-05-23T05:39:07;6.90;;;3.73;;
19645;SDS011;9971;52.446;13.452;2023-05-23T05:44:12;4.63;;;4.20;;
19645;SDS011;9971;52.446;13.452;2023-05-23T05:49:17;5.77;;;4.70;;
19645;SDS011;9971;52.446;13.452;2023-05-23T05:54:20;4.85;;;4.33;;
19645;SDS011;9971;52.446;13.452;2023-05-23T05:59:22;5.20;;;4.73;;
19645;SDS011;9971;52.446;13.452;2023-05-23T06:04:27;4.87;;;4.47;;
19645;SDS011;9971;52.446;13.452;2023-05-23T06:09:30;6.03;;;4.33;;
19645;SDS011;9971;52.446;13.452;2023-05-23T06:14:33;5.10;;;4.45;;
19645;SDS011;9971;52.446;13.452;2023-05-23T06:19:35;7.27;;;4.27;;
19645;SDS011;9971;52.446;13.452;2023-05-23T06:24:37;6.85;;;4.70;;
19645;SDS011;9971;52.446;13.452;2023-05-23T06:29:39;5.93;;;4.80;;
19645;SDS011;9971;52.446;13.452;2023-05-23T06:34:42;5.47;;;4.95;;
19645;SDS011;9971;52.446;13.452;2023-05-23T06:39:45;7.57;;;5.10;;
19645;SDS011;9971;52.446;13.452;2023-05-23T06:44:47;5.03;;;4.53;;
19645;SDS011;9971;52.446;13.452;2023-05-23T06:49:50;5.30;;;4.73;;
19645;SDS011;9971;52.446;13.452;2023-05-23T06:54:52;4.58;;;4.17;;
19645;SDS011;9971;52.446;13.452;2023-05-23T06:59:56;5.43;;;4.37;;
19645;SDS011;9971;52.446;13.452;2023-05-23T07:04:59;5.07;;;4.50;;
19645;SDS011;9971;52.446;13.452;2023-05-23T07:31:47;5.42;;;4.37;;
19645;SDS011;9971;52.446;13.452;2023-05-23T07:36:49;4.55;;;4.12;;
19645;SDS011;9971;52.446;13.452;2023-05-23T07:41:51;4.78;;;4.08;;
19645;SDS011;9971;52.446;13.452;2023-05-23T07:46:54;4.50;;;3.37;;
19645;SDS011;9971;52.446;13.452;2023-05-23T07:51:57;4.53;;;3.83;;
19645;SDS011;9971;52.446;13.452;2023-05-23T07:56:59;5.60;;;4.10;;
19645;SDS011;9971;52.446;13.452;2023-05-23T08:02:02;4.93;;;4.10;;
19645;SDS011;9971;52.446;13.452;2023-05-23T08:07:04;4.75;;;4.00;;
19645;SDS011;9971;52.446;13.452;2023-05-23T08:12:07;5.27;;;4.33;;
19645;SDS011;9971;52.446;13.452;2023-05-23T08:17:15;5.47;;;3.53;;
19645;SDS011;9971;52.446;13.452;2023-05-23T08:22:20;4.28;;;3.87;;
19645;SDS011;9971;52.446;13.452;2023-05-23T09:37:53;4.33;;;3.83;;
19645;SDS011;9971;52.446;13.452;2023-05-23T09:43:20;3.77;;;3.37;;
19645;SDS011;9971;52.446;13.452;2023-05-23T09:48:28;5.25;;;3.77;;
19645;SDS011;9971;52.446;13.452;2023-05-23T09:53:32;5.77;;;4.03;;
19645;SDS011;9971;52.446;13.452;2023-05-23T09:58:37;4.25;;;3.85;;
19645;SDS011;9971;52.446;13.452;2023-05-23T10:03:50;3.93;;;3.57;;
19645;SDS011;9971;52.446;13.452;2023-05-23T10:09:11;4.50;;;4.15;;
19645;SDS011;9971;52.446;13.452;2023-05-23T10:14:21;5.83;;;4.67;;
19645;SDS011;9971;52.446;13.452;2023-05-23T10:19:42;6.70;;;6.20;;
19645;SDS011;9971;52.446;13.452;2023-05-23T11:20:31;9.50;;;8.45;;
19645;SDS011;9971;52.446;13.452;2023-05-23T11:50:42;11.30;;;10.25;;
19645;SDS011;9971;52.446;13.452;2023-05-23T12:20:58;10.50;;;9.70;;
19645;SDS011;9971;52.446;13.452;2023-05-23T12:51:25;9.95;;;9.00;;
19645;SDS011;9971;52.446;13.452;2023-05-23T13:21:32;7.03;;;6.50;;
19645;SDS011;9971;52.446;13.452;2023-05-23T13:51:41;11.85;;;10.78;;
19645;SDS011;9971;52.446;13.452;2023-05-23T14:21:48;11.45;;;10.28;;
19645;SDS011;9971;52.446;13.452;2023-05-23T14:51:55;10.10;;;9.20;;
19645;SDS011;9971;52.446;13.452;2023-05-23T15:22:28;5.40;;;4.83;;
19645;SDS011;9971;52.446;13.452;2023-05-23T15:27:43;6.73;;;5.17;;
19645;SDS011;9971;52.446;13.452;2023-05-23T15:49:13;4.22;;;3.83;;
19645;SDS011;9971;52.446;13.452;2023-05-23T15:59:47;6.17;;;4.60;;
19645;SDS011;9971;52.446;13.452;2023-05-23T16:10:21;4.70;;;4.30;;
19645;SDS011;9971;52.446;13.452;2023-05-23T16:25:57;5.05;;;4.65;;
19645;SDS011;9971;52.446;13.452;2023-05-23T16:30:59;5.08;;;4.67;;
19645;SDS011;9971;52.446;13.452;2023-05-23T16:36:09;5.77;;;5.27;;
19645;SDS011;9971;52.446;13.452;2023-05-23T16:57:36;5.03;;;4.60;;
19645;SDS011;9971;52.446;13.452;2023-05-23T17:02:41;5.45;;;4.95;;
19645;SDS011;9971;52.446;13.452;2023-05-23T17:07:43;4.90;;;4.50;;
19645;SDS011;9971;52.446;13.452;2023-05-23T17:34:11;3.05;;;2.70;;
19645;SDS011;9971;52.446;13.452;2023-05-23T17:39:15;1.95;;;1.85;;
19645;SDS011;9971;52.446;13.452;2023-05-23T18:00:42;6.33;;;2.83;;
19645;SDS011;9971;52.446;13.452;2023-05-23T18:05:46;5.50;;;2.90;;
19645;SDS011;9971;52.446;13.452;2023-05-23T18:10:49;4.77;;;2.80;;
19645;SDS011;9971;52.446;13.452;2023-05-23T18:15:51;3.75;;;2.67;;
19645;SDS011;9971;52.446;13.452;2023-05-23T18:20:53;4.17;;;3.02;;
19645;SDS011;9971;52.446;13.452;2023-05-23T18:25:56;7.33;;;3.20;;
19645;SDS011;9971;52.446;13.452;2023-05-23T18:47:05;6.33;;;3.50;;
19645;SDS011;9971;52.446;13.452;2023-05-23T18:52:08;5.75;;;3.30;;
19645;SDS011;9971;52.446;13.452;2023-05-23T18:57:10;7.37;;;3.97;;
19645;SDS011;9971;52.446;13.452;2023-05-23T19:02:13;5.30;;;3.50;;
19645;SDS011;9971;52.446;13.452;2023-05-23T19:07:15;5.90;;;3.12;;
19645;SDS011;9971;52.446;13.452;2023-05-23T19:12:18;6.55;;;3.58;;
19645;SDS011;9971;52.446;13.452;2023-05-23T19:17:20;3.30;;;2.97;;
19645;SDS011;9971;52.446;13.452;2023-05-23T19:22:22;5.08;;;3.12;;
19645;SDS011;9971;52.446;13.452;2023-05-23T19:27:24;4.22;;;2.95;;
19645;SDS011;9971;52.446;13.452;2023-05-23T19:32:27;6.37;;;3.37;;
19645;SDS011;9971;52.446;13.452;2023-05-23T19:37:30;3.15;;;2.72;;
19645;SDS011;9971;52.446;13.452;2023-05-23T19:42:32;4.95;;;3.02;;
19645;SDS011;9971;52.446;13.452;2023-05-23T19:47:35;5.90;;;3.17;;
19645;SDS011;9971;52.446;13.452;2023-05-23T19:52:38;4.85;;;3.35;;
19645;SDS011;9971;52.446;13.452;2023-05-23T19:57:39;5.20;;;3.00;;
19645;SDS011;9971;52.446;13.452;2023-05-23T20:02:42;5.75;;;3.25;;
19645;SDS011;9971;52.446;13.452;2023-05-23T20:07:44;6.50;;;3.15;;
19645;SDS011;9971;52.446;13.452;2023-05-23T20:12:47;4.15;;;2.92;;
19645;SDS011;9971;52.446;13.452;2023-05-23T20:17:49;5.30;;;3.30;;
19645;SDS011;9971;52.446;13.452;2023-05-23T20:22:51;5.50;;;3.10;;
19645;SDS011;9971;52.446;13.452;2023-05-23T20:27:54;7.10;;;3.65;;
19645;SDS011;9971;52.446;13.452;2023-05-23T20:32:57;5.03;;;3.20;;
19645;SDS011;9971;52.446;13.452;2023-05-23T20:37:59;4.53;;;3.07;;
19645;SDS011;9971;52.446;13.452;2023-05-23T20:43:02;6.70;;;3.27;;
19645;SDS011;9971;52.446;13.452;2023-05-23T20:48:04;5.17;;;2.93;;
19645;SDS011;9971;52.446;13.452;2023-05-23T20:53:09;5.60;;;3.20;;
19645;SDS011;9971;52.446;13.452;2023-05-23T21:03:35;6.30;;;3.43;;
19645;SDS011;9971;52.446;13.452;2023-05-23T21:08:41;6.17;;;3.17;;
19645;SDS011;9971;52.446;13.452;2023-05-23T21:13:43;10.43;;;3.45;;
19645;SDS011;9971;52.446;13.452;2023-05-23T21:18:46;9.77;;;3.07;;
19645;SDS011;9971;52.446;13.452;2023-05-23T21:23:48;7.75;;;3.02;;
19645;SDS011;9971;52.446;13.452;2023-05-23T21:28:50;6.47;;;3.10;;
19645;SDS011;9971;52.446;13.452;2023-05-23T21:33:53;6.55;;;3.45;;
19645;SDS011;9971;52.446;13.452;2023-05-23T21:38:55;5.10;;;2.55;;
19645;SDS011;9971;52.446;13.452;2023-05-23T21:43:58;7.75;;;3.25;;
19645;SDS011;9971;52.446;13.452;2023-05-23T21:49:17;9.77;;;3.43;;
19645;SDS011;9971;52.446;13.452;2023-05-23T21:54:20;6.17;;;3.12;;
19645;SDS011;9971;52.446;13.452;2023-05-23T21:59:23;7.62;;;3.20;;
19645;SDS011;9971;52.446;13.452;2023-05-23T22:04:28;8.88;;;3.05;;
19645;SDS011;9971;52.446;13.452;2023-05-23T22:09:32;9.33;;;2.70;;
19645;SDS011;9971;52.446;13.452;2023-05-23T22:14:36;5.80;;;2.40;;
19645;SDS011;9971;52.446;13.452;2023-05-23T22:19:38;8.23;;;2.92;;
19645;SDS011;9971;52.446;13.452;2023-05-23T22:24:41;11.45;;;3.05;;
19645;SDS011;9971;52.446;13.452;2023-05-23T22:29:43;6.90;;;2.60;;
19645;SDS011;9971;52.446;13.452;2023-05-23T22:34:46;8.75;;;2.72;;
19645;SDS011;9971;52.446;13.452;2023-05-23T22:39:48;4.58;;;2.42;;
19645;SDS011;9971;52.446;13.452;2023-05-23T22:44:51;9.25;;;2.92;;
19645;SDS011;9971;52.446;13.452;2023-05-23T22:49:54;4.65;;;2.22;;
19645;SDS011;9971;52.446;13.452;2023-05-23T22:54:56;6.72;;;2.52;;
19645;SDS011;9971;52.446;13.452;2023-05-23T22:59:59;6.58;;;2.30;;
19645;SDS011;9971;52.446;13.452;2023-05-23T23:05:01;8.85;;;2.83;;
19645;SDS011;9971;52.446;13.452;2023-05-23T23:10:04;6.00;;;2.37;;
19645;SDS011;9971;52.446;13.452;2023-05-23T23:15:07;6.90;;;2.40;;
19645;SDS011;9971;52.446;13.452;2023-05-23T23:20:10;8.15;;;2.55;;
19645;SDS011;9971;52.446;13.452;2023-05-23T23:25:13;10.85;;;3.10;;
19645;SDS011;9971;52.446;13.452;2023-05-23T23:30:15;9.05;;;3.37;;
19645;SDS011;9971;52.446;13.452;2023-05-23T23:35:18;4.47;;;2.30;;
19645;SDS011;9971;52.446;13.452;2023-05-23T23:40:20;7.70;;;2.58;;
19645;SDS011;9971;52.446;13.452;2023-05-23T23:45:22;6.70;;;2.30;;
19645;SDS011;9971;52.446;13.452;2023-05-23T23:50:24;7.67;;;2.60;;
19645;SDS011;9971;52.446;13.452;2023-05-23T23:55:28;9.88;;;2.42;;
